Latest Weather Observations for Gladstone Airport

IDQ60801

Issued at 4:32 pm EST Saturday 31 January 2015 (issued every 30 minutes, with the page automatically refreshed every 10 minutes)

About weather observations | Map of weather stations | Latest weather observations for QLD | Other Formats
Station Details ID: 039326 Name: GLADSTONE AIRPORT Lat: -23.87 Lon: 151.22 Height: 16.6 m
Data from the previous 72 hours. | See also: Recent months at Gladstone Airport
Date/Time
EST
Temp
°C
App
Temp
°C
Dew
Point
Rel
Hum
%
Delta-T
°C
Wind Press
QNH
hPa
Press
MSL
hPa
Rain
since 9 am
mm
Dir
 
Spd
km/h
Gust
km/h
Spd
kts
Gust
kts
31/04:30pm 29.3 29.7 21.0 61 5.5 ENE 20 24 11 13 1004.7 1004.6 0.0
31/04:00pm 29.9 30.5 21.3 60 5.8 NE 20 28 11 15 1004.7 1004.6 0.0
31/03:30pm 30.1 30.6 21.2 59 6.0 NE 20 26 11 14 1004.7 1004.6 0.0
31/03:00pm 30.4 31.2 21.8 60 5.8 NE 20 28 11 15 1005.1 1005.0 0.0
31/02:30pm 29.8 29.9 21.2 60 5.7 NE 22 28 12 15 1005.5 1005.4 0.0
31/02:00pm 30.1 30.2 21.2 59 6.0 NE 22 28 12 15 1005.9 1005.8 0.0
31/01:30pm 30.8 31.4 21.0 56 6.6 NE 19 26 10 14 1006.2 1006.1 0.0
31/01:00pm 30.8 32.5 21.0 56 6.6 NE 13 19 7 10 1006.6 1006.5 0.0
31/12:30pm 30.2 31.5 20.2 55 6.6 NE 13 19 7 10 1006.9 1006.8 0.0
31/12:00pm 30.0 31.4 20.3 56 6.4 NNE 13 19 7 10 1007.2 1007.1 0.0
31/11:30am 30.0 31.8 20.3 56 6.4 NW 11 19 6 10 1007.7 1007.6 0.0
31/11:00am 29.7 31.9 19.7 55 6.6 NE 7 11 4 6 1007.9 1007.8 0.0
31/10:30am 29.1 30.2 18.8 53 6.6 NNW 11 17 6 9 1008.1 1008.0 0.0
31/10:00am 28.5 30.1 19.1 56 6.1 N 9 13 5 7 1008.3 1008.2 0.0
31/09:30am 28.4 30.6 20.4 62 5.3 N 9 13 5 7 1008.6 1008.5 0.0
31/09:00am 27.2 29.6 20.0 64 4.7 ENE 7 11 4 6 1008.9 1008.8 0.0
31/08:30am 27.2 30.0 20.5 67 4.4 WSW 6 13 3 7 1008.9 1008.8 0.0
31/08:00am 26.3 29.1 20.8 71 3.6 SW 7 9 4 5 1008.8 1008.7 0.0
31/07:30am 24.8 26.7 19.8 74 3.2 SW 9 11 5 6 1008.8 1008.7 0.0
31/07:00am 24.3 27.0 20.2 78 2.7 SSW 6 9 3 5 1008.5 1008.4 0.0
31/06:30am 22.6 24.3 19.4 82 2.0 SSW 9 15 5 8 1008.5 1008.4 0.0
31/06:00am 21.7 23.4 19.3 86 1.5 SSW 9 13 5 7 1008.2 1008.1 0.0
31/05:30am 21.4 22.7 19.3 88 1.3 SSW 11 15 6 8 1007.7 1007.6 0.0
31/05:00am 21.2 22.9 19.3 89 1.2 SSW 9 13 5 7 1007.5 1007.4 0.0
31/04:30am 21.4 22.7 19.3 88 1.3 SW 11 15 6 8 1007.3 1007.2 0.0
31/04:00am 21.5 22.9 19.6 89 1.2 SSW 11 15 6 8 1007.3 1007.2 0.0
31/03:30am 21.7 23.5 19.6 88 1.3 SSW 9 15 5 8 1007.1 1007.0 0.0
31/03:00am 22.1 23.9 19.5 85 1.7 SW 9 15 5 8 1007.1 1007.0 0.0
31/02:30am 22.4 25.7 19.2 82 2.0 CALM 0 6 0 3 1007.0 1006.9 0.0
31/02:00am 22.9 26.3 19.3 80 2.3 CALM 0 7 0 4 1007.1 1007.0 0.0
31/01:30am 23.1 25.3 19.3 79 2.4 SSE 6 7 3 4 1007.2 1007.1 0.0
31/01:00am 23.5 25.9 19.6 79 2.5 SSE 6 9 3 5 1007.5 1007.4 0.0
31/12:30am 23.6 25.8 19.7 79 2.5 SSW 7 9 4 5 1008.1 1008.0 0.0
31/12:00am 23.8 26.3 19.9 79 2.5 S 6 9 3 5 1008.3 1008.2 0.0
 
Date/Time
EST
Temp
°C
App
Temp
°C
Dew
Point
Rel
Hum
%
Delta-T
°C
Wind Press
QNH
hPa
Press
MSL
hPa
Rain
since 9 am
mm
Dir
 
Spd
km/h
Gust
km/h
Spd
kts
Gust
kts
30/11:30pm 24.3 26.3 20.0 77 2.8 SSW 9 9 5 5 1008.8 1008.7 0.0
30/11:00pm 24.9 27.4 19.9 74 3.2 S 6 7 3 4 1008.9 1008.8 0.0
30/10:30pm 25.5 28.0 19.9 71 3.6 SE 6 7 3 4 1008.7 1008.6 0.0
30/10:00pm 26.0 28.4 19.6 68 4.1 ESE 6 9 3 5 1008.6 1008.5 0.0
30/09:30pm 26.0 28.2 19.6 68 4.1 ESE 7 9 4 5 1008.6 1008.5 0.0
30/09:00pm 26.0 27.8 19.6 68 4.1 E 9 11 5 6 1008.3 1008.2 0.0
30/08:30pm 26.1 28.3 19.5 67 4.3 ESE 7 9 4 5 1008.2 1008.1 0.0
30/08:00pm 26.2 28.0 19.6 67 4.3 ENE 9 13 5 7 1007.9 1007.8 0.0
30/07:30pm 26.3 27.9 19.2 65 4.6 ENE 9 13 5 7 1007.8 1007.7 0.0
30/07:00pm 26.5 27.6 19.6 66 4.5 ENE 13 17 7 9 1007.4 1007.3 0.0
30/06:30pm 26.8 27.7 19.2 63 4.9 ENE 13 20 7 11 1007.2 1007.1 0.0
30/06:00pm 27.1 27.4 19.7 64 4.8 NE 17 24 9 13 1006.7 1006.6 0.0
30/05:30pm 27.5 27.5 19.8 63 5.0 ENE 19 24 10 13 1006.5 1006.4 0.0
30/05:00pm 28.1 27.7 19.3 58 5.7 ENE 20 26 11 14 1006.2 1006.1 0.0
30/04:30pm 28.1 27.8 19.1 58 5.8 ENE 19 26 10 14 1006.1 1006.0 0.0
30/04:00pm 28.1 27.8 19.6 60 5.5 ENE 20 30 11 16 1006.2 1006.1 0.0
30/03:30pm 27.7 27.8 20.0 63 5.0 ENE 19 24 10 13 1006.4 1006.3 0.0
30/03:00pm 28.0 28.0 19.8 61 5.4 ENE 19 26 10 14 1006.5 1006.4 0.0
30/02:30pm 28.5 27.8 19.4 57 5.9 ENE 22 32 12 17 1006.6 1006.5 0.0
30/02:00pm 29.0 28.6 20.2 59 5.8 ENE 22 30 12 16 1007.0 1006.9 0.0
30/01:30pm 28.4 28.1 19.6 59 5.7 ENE 20 28 11 15 1007.2 1007.1 0.0
30/01:00pm 28.6 28.6 20.1 60 5.6 E 20 30 11 16 1007.5 1007.4 0.0
30/12:30pm 29.7 29.8 20.0 56 6.4 E 19 28 10 15 1007.9 1007.8 0.0
30/12:00pm 29.3 29.5 20.2 58 6.0 ESE 19 28 10 15 1008.3 1008.2 0.0
30/11:30am 28.8 28.5 19.1 55 6.3 E 19 28 10 15 1008.6 1008.5 0.0
30/11:00am 28.6 28.3 19.5 58 5.9 E 20 28 11 15 1008.9 1008.8 0.0
30/10:30am 28.5 30.0 20.5 62 5.3 ESE 13 20 7 11 1008.8 1008.7 0.0
30/10:00am 27.7 28.1 19.0 59 5.6 SE 15 20 8 11 1008.8 1008.7 0.0
30/09:30am 27.3 27.9 19.4 62 5.1 SE 15 24 8 13 1009.0 1008.9 0.0
30/09:00am 27.9 27.9 19.7 61 5.3 SE 19 26 10 14 1008.9 1008.8 0.8
30/08:30am 26.8 26.9 19.2 63 4.9 SE 17 24 9 13 1009.0 1008.9 0.8
30/08:00am 26.4 27.3 19.3 65 4.6 SSE 13 20 7 11 1008.8 1008.7 0.8
30/07:30am 25.5 26.1 19.4 69 3.9 SSE 15 20 8 11 1008.7 1008.6 0.8
30/07:00am 24.9 26.2 19.3 71 3.6 SSE 11 17 6 9 1008.5 1008.4 0.8
30/06:30am 23.6 25.6 19.9 80 2.4 S 9 13 5 7 1008.1 1008.0 0.8
30/06:00am 22.3 24.2 19.7 85 1.7 SSW 9 11 5 6 1007.7 1007.6 0.8
30/05:30am 22.5 24.0 19.7 84 1.8 S 11 15 6 8 1007.5 1007.4 0.8
30/05:00am 22.2 24.1 19.7 86 1.6 SSW 9 13 5 7 1007.1 1007.0 0.8
30/04:30am 22.0 24.4 19.7 87 1.5 SSW 6 9 3 5 1007.0 1006.9 0.8
30/04:00am 22.1 24.3 19.6 86 1.6 SSW 7 9 4 5 1007.0 1006.9 0.8
30/03:30am 22.5 24.7 19.7 84 1.8 SSW 7 11 4 6 1007.2 1007.1 0.8
30/03:00am 22.9 25.2 19.9 83 1.9 SSE 7 9 4 5 1007.2 1007.1 0.8
30/02:30am 23.2 24.9 20.2 83 1.9 SSE 11 17 6 9 1007.5 1007.4 0.8
30/02:00am 23.2 25.2 20.0 82 2.1 SSE 9 13 5 7 1007.4 1007.3 0.8
30/01:30am 23.3 25.7 20.1 82 2.1 SSE 7 9 4 5 1007.7 1007.6 0.8
30/01:00am 23.5 26.0 20.2 82 2.1 SSE 7 11 4 6 1007.9 1007.8 0.8
30/12:30am 23.7 25.8 20.2 81 2.3 SSE 9 13 5 7 1008.1 1008.0 0.8
30/12:00am 23.8 26.0 20.5 82 2.2 SSE 9 13 5 7 1008.2 1008.1 0.8
 
Date/Time
EST
Temp
°C
App
Temp
°C
Dew
Point
Rel
Hum
%
Delta-T
°C
Wind Press
QNH
hPa
Press
MSL
hPa
Rain
since 9 am
mm
Dir
 
Spd
km/h
Gust
km/h
Spd
kts
Gust
kts
29/11:30pm 23.8 26.0 20.5 82 2.1 S 9 13 5 7 1008.4 1008.3 0.8
29/11:00pm 23.9 26.6 20.6 82 2.2 SSE 7 11 4 6 1008.7 1008.6 0.8
29/10:30pm 24.1 26.9 20.8 82 2.2 SSE 7 13 4 7 1008.8 1008.7 0.8
29/10:00pm 24.4 26.8 20.9 81 2.3 SSE 9 15 5 8 1008.7 1008.6 0.8
29/09:30pm 24.6 26.7 20.9 80 2.4 SE 11 15 6 8 1008.5 1008.4 0.8
29/09:00pm 24.5 27.1 21.2 82 2.2 SE 9 15 5 8 1008.3 1008.2 0.8
29/08:30pm 24.1 26.9 20.8 82 2.2 S 7 11 4 6 1008.1 1008.0 0.8
29/08:00pm 24.5 27.3 20.8 80 2.4 SSE 7 11 4 6 1007.9 1007.8 0.8
29/07:30pm 24.9 27.3 20.8 78 2.7 SE 9 13 5 7 1007.8 1007.7 0.8
29/07:00pm 24.9 27.3 20.8 78 2.7 SE 9 15 5 8 1007.4 1007.3 0.8
29/06:30pm 24.8 27.1 20.7 78 2.7 SE 9 13 5 7 1006.9 1006.8 0.8
29/06:00pm 24.6 26.1 20.5 78 2.7 SE 13 20 7 11 1006.6 1006.5 0.8
29/05:30pm 25.8 26.3 20.8 74 3.3 SE 19 26 10 14 1006.1 1006.0 0.4
29/05:00pm 27.0 27.6 20.3 66 4.4 SE 17 24 9 13 1005.9 1005.8 0.4
29/04:30pm 27.0 27.3 19.6 64 4.8 SE 17 24 9 13 1005.7 1005.6 0.4
29/04:00pm 26.4 27.1 20.5 70 3.9 SSE 17 20 9 11 1005.6 1005.5 0.4
29/03:30pm 27.3 28.0 20.4 66 4.5 ESE 17 26 9 14 1005.5 1005.4 0.4
29/03:00pm 27.5 28.3 21.3 69 4.1 ESE 19 24 10 13 1005.5 1005.4 0.4
29/02:30pm 27.1 28.5 21.8 73 3.5 E 17 20 9 11 1005.6 1005.5 0.4
29/02:00pm 26.3 28.0 21.7 76 3.1 E 15 19 8 10 1005.8 1005.7 0.4
29/01:30pm 27.0 29.1 21.7 73 3.5 ESE 13 19 7 10 1006.0 1005.9 0.4
29/01:00pm 28.1 29.2 20.4 63 5.1 E 15 22 8 12 1006.0 1005.9 0.2
29/12:30pm 28.5 29.4 20.0 60 5.6 ESE 15 22 8 12 1006.3 1006.2 0.2
29/12:00pm 27.9 28.1 19.4 60 5.5 SE 17 24 9 13 1006.6 1006.5 0.2
29/11:30am 28.0 28.5 20.0 61 5.2 SE 17 22 9 12 1006.8 1006.7 0.2
29/11:00am 26.9 27.1 19.3 63 4.9 SE 17 28 9 15 1007.0 1006.9 0.0
29/10:30am 27.0 27.9 20.1 66 4.5 SE 15 24 8 13 1007.1 1007.0 0.0
29/10:00am 26.0 26.1 19.2 66 4.4 SE 17 26 9 14 1007.2 1007.1 0.0
29/09:30am 25.9 26.8 19.3 67 4.2 SE 13 19 7 10 1007.2 1007.1 0.0
29/09:00am 25.2 25.6 19.1 69 3.9 SSE 15 22 8 12 1007.2 1007.1 2.4
29/08:30am 24.6 24.5 18.8 70 3.7 SSE 17 28 9 15 1007.2 1007.1 2.4
29/08:00am 24.5 24.8 18.7 70 3.7 SSE 15 24 8 13 1007.0 1006.9 2.4
29/07:30am 24.0 23.8 18.6 72 3.4 S 17 24 9 13 1006.6 1006.5 2.4
29/07:00am 23.7 24.2 18.4 72 3.3 SSE 13 19 7 10 1006.7 1006.6 2.4
29/06:30am 23.2 23.8 18.5 75 3.0 S 13 20 7 11 1006.5 1006.4 2.4
29/06:00am 22.9 24.4 18.9 78 2.5 S 9 17 5 9 1006.0 1005.9 2.4
29/05:30am 22.9 24.5 19.1 79 2.4 S 9 13 5 7 1005.5 1005.4 2.4
29/05:00am 23.2 24.8 19.1 78 2.6 S 9 13 5 7 1005.1 1005.0 2.4
29/04:30am 23.3 24.4 18.8 76 2.8 S 11 19 6 10 1004.7 1004.6 2.4
29/04:00am 23.4 24.2 19.1 77 2.7 SSE 13 20 7 11 1004.6 1004.5 2.4
29/03:30am 23.5 25.5 19.2 77 2.7 S 7 13 4 7 1004.9 1004.8 2.4
29/03:00am 23.5 24.8 19.2 77 2.7 SSE 11 19 6 10 1004.9 1004.8 2.4
29/02:30am 23.5 24.8 19.2 77 2.7 SSE 11 17 6 9 1004.7 1004.6 2.4
29/02:00am 23.4 24.3 19.3 78 2.6 SE 13 20 7 11 1004.6 1004.5 2.4
29/01:30am 23.4 24.7 19.3 78 2.6 SSE 11 17 6 9 1005.0 1004.9 2.4
29/01:00am 23.4 24.2 19.1 77 2.7 SE 13 20 7 11 1005.2 1005.1 2.4
29/12:30am 23.5 24.4 19.2 77 2.7 SSE 13 19 7 10 1005.6 1005.5 2.4
29/12:00am 23.5 24.4 19.2 77 2.7 SE 13 19 7 10 1005.8 1005.7 2.4
 
Date/Time
EST
Temp
°C
App
Temp
°C
Dew
Point
Rel
Hum
%
Delta-T
°C
Wind Press
QNH
hPa
Press
MSL
hPa
Rain
since 9 am
mm
Dir
 
Spd
km/h
Gust
km/h
Spd
kts
Gust
kts
28/11:30pm 23.5 24.3 19.8 80 2.4 SSE 15 26 8 14 1006.1 1006.0 2.4
28/11:00pm 23.5 23.9 19.8 80 2.4 SE 17 22 9 12 1005.9 1005.8 2.4
28/10:30pm 23.7 24.5 20.6 83 2.0 SSE 17 32 9 17 1005.9 1005.8 2.4
28/10:00pm 23.8 25.3 21.3 86 1.6 SE 15 20 8 11 1006.1 1006.0 2.4
28/09:30pm 24.0 25.3 21.7 87 1.5 SE 17 24 9 13 1006.0 1005.9 2.4
28/09:00pm 24.1 25.0 21.6 86 1.7 SE 19 26 10 14 1005.1 1005.0 2.4
28/08:30pm 25.0 27.7 22.1 84 1.9 SE 11 17 6 9 1005.0 1004.9 2.4
28/08:00pm 24.4 26.6 21.9 86 1.7 SSE 13 20 7 11 1004.7 1004.6 2.4
28/07:30pm 24.5 27.5 22.0 86 1.7 SSE 9 15 5 8 1004.8 1004.7 2.4
28/07:00pm 24.4 27.4 21.9 86 1.7 SSE 9 17 5 9 1004.4 1004.3 2.4
28/06:30pm 24.3 26.7 21.6 85 1.8 SSE 11 15 6 8 1004.4 1004.3 2.4
28/06:00pm 24.8 27.9 22.1 85 1.8 SSE 9 13 5 7 1004.0 1003.9 2.2
28/05:30pm 24.6 27.3 22.1 86 1.7 SSE 11 17 6 9 1003.7 1003.6 2.2
28/05:00pm 24.7 27.4 22.2 86 1.7 S 11 17 6 9 1003.1 1003.0 2.2

Other Formats:

Comma delimited format used in spreadsheet applications
http://www.bom.gov.au/fwo/IDQ60801/IDQ60801.94381.axf

JavaScript Object Notation format (JSON) in row-major order
http://www.bom.gov.au/fwo/IDQ60801/IDQ60801.94381.json